createdAt,value
2018-08-25T00:01:27.224Z,98316.95
2018-08-25T00:03:55.671Z,98314.25
2018-08-25T00:06:23.972Z,98324.66
2018-08-25T00:08:52.290Z,98321.64
2018-08-25T00:11:20.567Z,98317.27
2018-08-25T00:13:48.833Z,98311.59
2018-08-25T00:16:17.131Z,98310.77
2018-08-25T00:18:45.399Z,98309.75
2018-08-25T00:21:13.700Z,98309.25
2018-08-25T00:23:42.050Z,98291.66
2018-08-25T00:26:10.556Z,98293.50
2018-08-25T00:28:38.846Z,98291.13
2018-08-25T00:31:12.539Z,98291.84
2018-08-25T00:33:40.867Z,98298.02
2018-08-25T00:36:09.152Z,98290.83
2018-08-25T00:38:37.481Z,98286.13
2018-08-25T00:41:05.788Z,98290.83
2018-08-25T00:43:34.165Z,98285.13
2018-08-25T00:46:02.731Z,98279.77
2018-08-25T00:48:31.077Z,98269.53
2018-08-25T00:50:59.497Z,98273.05
2018-08-25T00:53:27.771Z,98274.08
2018-08-25T00:55:56.203Z,98275.75
2018-08-25T00:58:24.501Z,98273.75
2018-08-25T01:00:52.824Z,98264.02
2018-08-25T01:03:21.085Z,98268.38
2018-08-25T01:05:49.780Z,98261.64
2018-08-25T01:08:18.084Z,98261.61
2018-08-25T01:10:46.406Z,98250.38
2018-08-25T01:13:14.755Z,98252.59
2018-08-25T01:15:43.120Z,98252.12
2018-08-25T01:18:11.370Z,98248.75
2018-08-25T01:20:39.763Z,98238.16
2018-08-25T01:23:08.051Z,98242.91
2018-08-25T01:25:36.344Z,98232.66
2018-08-25T01:28:04.660Z,98229.48
2018-08-25T01:30:32.943Z,98227.84
2018-08-25T01:33:01.318Z,98225.15
2018-08-25T01:35:29.583Z,98223.47
2018-08-25T01:37:57.937Z,98224.50
2018-08-25T01:40:26.250Z,98231.05
2018-08-25T01:42:54.538Z,98222.68
2018-08-25T01:45:22.955Z,98220.47
2018-08-25T01:47:51.218Z,98218.64
2018-08-25T01:50:19.547Z,98216.97
2018-08-25T01:52:47.850Z,98213.27
2018-08-25T01:55:16.153Z,98212.42
2018-08-25T01:57:44.458Z,98213.76
2018-08-25T02:00:12.778Z,98211.80
2018-08-25T02:02:41.066Z,98213.80
2018-08-25T02:05:09.335Z,98208.56
2018-08-25T02:07:37.647Z,98209.09
2018-08-25T02:10:06.428Z,98206.44
2018-08-25T02:12:34.791Z,98201.06
2018-08-25T02:15:03.142Z,98196.28
2018-08-25T02:17:31.463Z,98197.63
2018-08-25T02:19:59.782Z,98191.60
2018-08-25T02:22:28.104Z,98192.17
2018-08-25T02:24:56.378Z,98191.19
2018-08-25T02:27:24.716Z,98189.19
2018-08-25T02:29:53.007Z,98185.33
2018-08-25T02:32:21.442Z,98189.03
2018-08-25T02:34:49.751Z,98177.47
2018-08-25T02:37:18.033Z,98180.14
2018-08-25T02:39:46.410Z,98179.13
2018-08-25T02:42:14.699Z,98169.92
2018-08-25T02:44:43.035Z,98168.44
2018-08-25T02:47:11.328Z,98166.92
2018-08-25T02:49:39.587Z,98161.90
2018-08-25T02:52:07.891Z,98165.91
2018-08-25T02:54:36.200Z,98160.57
2018-08-25T02:57:04.585Z,98164.77
2018-08-25T02:59:33.012Z,98161.57
2018-08-25T03:02:01.326Z,98155.69
2018-08-25T03:04:29.653Z,98152.13
2018-08-25T03:06:57.918Z,98154.08
2018-08-25T03:09:26.223Z,98144.91
2018-08-25T03:11:54.520Z,98146.08
2018-08-25T03:14:22.903Z,98137.60
2018-08-25T03:16:51.263Z,98140.86
2018-08-25T03:19:19.804Z,98140.48
2018-08-25T03:21:48.115Z,98135.30
2018-08-25T03:24:16.453Z,98140.65
2018-08-25T03:26:44.754Z,98137.05
2018-08-25T03:29:13.086Z,98134.73
2018-08-25T03:31:41.900Z,98135.34
2018-08-25T03:34:10.200Z,98137.23
2018-08-25T03:36:38.564Z,98131.91
2018-08-25T03:39:08.764Z,98131.09
2018-08-25T03:41:37.121Z,98133.72
2018-08-25T03:44:05.482Z,98131.86
2018-08-25T03:46:33.859Z,98123.69
2018-08-25T03:49:02.138Z,98132.38
2018-08-25T03:51:30.437Z,98132.88
2018-08-25T03:53:58.762Z,98130.08
2018-08-25T03:56:27.045Z,98136.29
2018-08-25T03:58:55.402Z,98129.56
2018-08-25T04:01:23.759Z,98121.02
2018-08-25T04:03:52.119Z,98124.84
2018-08-25T04:06:20.429Z,98127.62
2018-08-25T04:08:50.733Z,98122.43
2018-08-25T04:11:19.051Z,98127.19
2018-08-25T04:13:47.390Z,98127.44
2018-08-25T04:16:22.378Z,98116.56
2018-08-25T04:18:50.713Z,98121.34
2018-08-25T04:21:19.019Z,98113.73
2018-08-25T04:32:51.595Z,98113.68
2018-08-25T04:35:19.980Z,98106.80
2018-08-25T04:37:48.389Z,98112.48
2018-08-25T04:40:16.716Z,98111.66
2018-08-25T04:42:45.039Z,98119.55
2018-08-25T04:45:13.372Z,98124.61
2018-08-25T04:47:41.738Z,98118.81
2018-08-25T04:50:10.243Z,98122.03
2018-08-25T04:52:38.578Z,98115.56
2018-08-25T04:55:06.895Z,98123.25
2018-08-25T04:57:35.266Z,98108.76
2018-08-25T05:00:03.622Z,98102.23
2018-08-25T05:02:31.970Z,98096.06
2018-08-25T05:05:00.257Z,98097.55
2018-08-25T05:07:28.790Z,98096.11
2018-08-25T05:09:57.193Z,98094.72
2018-08-25T05:12:25.509Z,98086.63
2018-08-25T05:14:53.880Z,98095.09
2018-08-25T05:17:22.256Z,98092.22
2018-08-25T05:19:50.585Z,98090.25
2018-08-25T05:22:18.922Z,98083.30
2018-08-25T05:24:47.861Z,98089.93
2018-08-25T05:27:18.618Z,98088.91
2018-08-25T05:29:49.287Z,98090.25
2018-08-25T05:32:20.066Z,98089.05
2018-08-25T05:34:48.929Z,98087.85
2018-08-25T05:37:17.579Z,98091.27
2018-08-25T05:39:46.582Z,98091.41
2018-08-25T05:42:16.589Z,98084.11
2018-08-25T05:44:44.947Z,98085.19
2018-08-25T05:47:13.258Z,98086.96
2018-08-25T05:49:41.622Z,98083.13
2018-08-25T05:52:10.796Z,98081.50
2018-08-25T05:54:39.178Z,98079.38
2018-08-25T05:57:08.195Z,98078.45
2018-08-25T05:59:36.633Z,98074.51
2018-08-25T06:02:05.620Z,98080.91
2018-08-25T06:04:33.944Z,98083.81
2018-08-25T06:07:02.267Z,98077.04
2018-08-25T06:09:30.705Z,98076.96
2018-08-25T06:11:59.048Z,98072.10
2018-08-25T06:14:27.393Z,98070.89
2018-08-25T06:16:55.798Z,98069.02
2018-08-25T06:19:24.205Z,98071.02
2018-08-25T06:21:52.495Z,98075.78
2018-08-25T06:24:20.823Z,98067.58
2018-08-25T06:26:49.227Z,98074.30
2018-08-25T06:29:17.588Z,98067.63
2018-08-25T06:31:45.888Z,98065.78
2018-08-25T06:34:14.195Z,98066.04
2018-08-25T06:36:42.620Z,98059.36
2018-08-25T06:39:11.162Z,98055.23
2018-08-25T06:41:39.474Z,98063.72
2018-08-25T06:44:07.804Z,98066.03
2018-08-25T06:46:36.099Z,98057.36
2018-08-25T06:49:04.471Z,98055.97
2018-08-25T06:51:33.709Z,98063.88
2018-08-25T06:54:04.088Z,98059.23
2018-08-25T06:56:32.624Z,98058.08
2018-08-25T06:59:01.070Z,98063.91
2018-08-25T07:01:29.698Z,98051.05
2018-08-25T07:03:58.233Z,98059.97
2018-08-25T07:06:26.680Z,98055.22
2018-08-25T07:08:55.204Z,98056.49
2018-08-25T07:11:23.836Z,98049.05
2018-08-25T07:13:52.954Z,98052.55
2018-08-25T07:16:21.356Z,98049.00
2018-08-25T07:18:50.121Z,98050.68
2018-08-25T07:21:18.545Z,98052.38
2018-08-25T07:23:47.375Z,98059.89
2018-08-25T07:26:17.196Z,98066.82
2018-08-25T07:28:46.439Z,98055.80
2018-08-25T07:31:14.772Z,98054.94
2018-08-25T07:33:43.291Z,98053.80
2018-08-25T07:36:11.982Z,98060.66
2018-08-25T07:38:40.642Z,98052.23
2018-08-25T07:41:09.048Z,98059.02
2018-08-25T07:43:38.023Z,98056.92
2018-08-25T07:46:06.694Z,98056.28
2018-08-25T07:48:35.279Z,98059.11
2018-08-25T07:51:04.055Z,98059.77
2018-08-25T07:53:33.193Z,98063.52
2018-08-25T07:56:02.195Z,98065.58
2018-08-25T07:58:31.373Z,98052.88
2018-08-25T08:01:00.174Z,98055.95
2018-08-25T08:03:28.778Z,98059.63
2018-08-25T08:05:57.165Z,98061.61
2018-08-25T08:08:25.973Z,98053.52
2018-08-25T08:10:54.503Z,98054.78
2018-08-25T08:13:23.051Z,98053.66
2018-08-25T08:15:51.437Z,98056.05
2018-08-25T08:18:19.816Z,98046.19
2018-08-25T08:20:48.392Z,98071.16
2018-08-25T08:23:16.872Z,98061.52
2018-08-25T08:25:45.345Z,98063.40
2018-08-25T08:28:13.775Z,98071.26
2018-08-25T08:30:42.671Z,98062.44
2018-08-25T08:33:11.017Z,98078.24
2018-08-25T08:35:39.370Z,98086.72
2018-08-25T08:38:07.768Z,98084.61
2018-08-25T08:40:36.716Z,98096.00
2018-08-25T08:43:05.071Z,98094.60
2018-08-25T08:45:33.944Z,98109.72
2018-08-25T08:48:02.542Z,98115.23
2018-08-25T08:50:30.951Z,98117.54
2018-08-25T08:52:59.252Z,98128.52
2018-08-25T08:55:28.135Z,98119.66
2018-08-25T08:57:56.583Z,98126.06
2018-08-25T09:00:24.902Z,98141.14
2018-08-25T09:02:53.203Z,98140.33
2018-08-25T09:05:21.544Z,98142.02
2018-08-25T09:07:50.003Z,98153.27
2018-08-25T09:10:18.359Z,98153.22
2018-08-25T09:12:46.668Z,98154.01
2018-08-25T09:15:14.976Z,98162.89
2018-08-25T09:17:43.383Z,98158.66
2018-08-25T09:20:11.771Z,98160.86
2018-08-25T09:22:40.142Z,98156.63
2018-08-25T09:25:08.442Z,98162.56
2018-08-25T09:27:36.786Z,98148.63
2018-08-25T09:30:05.147Z,98144.55
2018-08-25T09:32:33.521Z,98148.96
2018-08-25T09:35:01.815Z,98136.55
2018-08-25T09:37:30.124Z,98137.21
2018-08-25T09:39:58.426Z,98128.03
2018-08-25T09:42:26.687Z,98125.23
2018-08-25T09:44:54.985Z,98133.39
2018-08-25T09:47:23.272Z,98127.16
2018-08-25T09:49:51.593Z,98122.77
2018-08-25T09:52:19.869Z,98128.31
2018-08-25T09:54:48.164Z,98127.98
2018-08-25T09:57:16.471Z,98130.52
2018-08-25T09:59:44.755Z,98126.70
2018-08-25T10:02:13.131Z,98129.39
2018-08-25T10:04:41.409Z,98120.73
2018-08-25T10:07:09.687Z,98129.51
2018-08-25T10:09:37.961Z,98122.74
2018-08-25T10:12:06.219Z,98122.50
2018-08-25T10:14:34.455Z,98123.94
2018-08-25T10:17:02.754Z,98127.73
2018-08-25T10:19:30.979Z,98115.45
2018-08-25T10:21:59.270Z,98115.92
2018-08-25T10:24:27.873Z,98113.33
2018-08-25T10:26:56.166Z,98121.52
2018-08-25T10:29:24.410Z,98121.98
2018-08-25T10:31:52.713Z,98127.20
2018-08-25T10:34:21.017Z,98119.75
2018-08-25T10:36:49.249Z,98113.96
2018-08-25T10:39:17.483Z,98115.64
2018-08-25T10:41:45.747Z,98119.11
2018-08-25T10:44:13.989Z,98121.27
2018-08-25T10:46:42.236Z,98115.12
2018-08-25T10:49:10.507Z,98115.28
2018-08-25T10:51:39.050Z,98122.83
2018-08-25T10:54:07.750Z,98113.30
2018-08-25T10:56:35.989Z,98103.87
2018-08-25T10:59:04.382Z,98109.99
2018-08-25T11:01:32.657Z,98108.01
2018-08-25T11:04:00.919Z,98102.32
2018-08-25T11:06:29.192Z,98101.22
2018-08-25T11:08:57.627Z,98092.98
2018-08-25T11:11:25.810Z,98093.18
2018-08-25T11:13:54.033Z,98100.12
2018-08-25T11:16:22.438Z,98106.06
2018-08-25T11:18:50.730Z,98095.67
2018-08-25T11:21:19.078Z,98109.30
2018-08-25T11:23:47.390Z,98107.78
2018-08-25T11:26:15.599Z,98120.73
2018-08-25T11:28:43.950Z,98117.77
2018-08-25T11:31:12.199Z,98106.19
2018-08-25T11:33:40.535Z,98111.12
2018-08-25T11:36:09.096Z,98116.05
2018-08-25T11:39:18.918Z,98116.36
2018-08-25T11:41:47.319Z,98115.53
2018-08-25T11:44:15.725Z,98111.30
2018-08-25T11:46:44.227Z,98106.83
2018-08-25T11:51:30.797Z,98107.20
2018-08-25T11:54:02.051Z,98105.19
2018-08-25T11:56:30.698Z,98100.00
2018-08-25T11:58:59.007Z,98096.59
2018-08-25T12:01:27.385Z,98096.78
2018-08-25T12:03:55.633Z,98099.36
2018-08-25T12:06:23.938Z,98098.77
2018-08-25T12:08:52.189Z,98100.39
2018-08-25T12:11:20.543Z,98096.78
2018-08-25T12:13:48.851Z,98095.81
2018-08-25T12:16:17.195Z,98092.06
2018-08-25T12:21:18.512Z,98101.91
2018-08-25T12:23:47.023Z,98105.53
2018-08-25T12:26:15.423Z,98102.48
2018-08-25T12:32:02.507Z,98121.48
2018-08-25T12:34:30.772Z,98127.97
2018-08-25T12:36:59.130Z,98122.91
2018-08-25T12:39:27.414Z,98125.27
2018-08-25T12:41:55.674Z,98127.27
2018-08-25T12:44:24.094Z,98136.72
2018-08-25T12:46:52.608Z,98159.98
2018-08-25T12:49:20.965Z,98177.69
2018-08-25T12:51:49.377Z,98189.11
2018-08-25T12:54:17.848Z,98181.47
2018-08-25T12:56:46.160Z,98181.31
2018-08-25T12:59:14.598Z,98180.81
2018-08-25T13:01:42.844Z,98188.09
2018-08-25T13:04:11.159Z,98189.59
2018-08-25T13:06:39.471Z,98204.11
2018-08-25T13:09:09.143Z,98202.17
2018-08-25T13:11:47.680Z,98198.33
2018-08-25T13:14:16.074Z,98190.98
2018-08-25T13:16:44.297Z,98194.06
2018-08-25T13:19:12.585Z,98199.42
2018-08-25T13:21:40.929Z,98198.92
2018-08-25T13:24:09.239Z,98199.28
2018-08-25T13:26:37.498Z,98198.94
2018-08-25T13:29:05.759Z,98191.63
2018-08-25T13:34:54.330Z,98204.55
2018-08-25T13:37:22.565Z,98207.34
2018-08-25T13:39:50.881Z,98200.67
2018-08-25T13:42:19.249Z,98218.04
2018-08-25T13:44:47.814Z,98212.00
2018-08-25T13:47:16.415Z,98210.66
2018-08-25T13:49:44.969Z,98218.35
2018-08-25T13:52:13.317Z,98226.94
2018-08-25T13:54:41.725Z,98223.87
2018-08-25T13:57:10.173Z,98231.17
2018-08-25T14:00:25.972Z,98223.22
2018-08-25T14:02:54.335Z,98230.41
2018-08-25T14:05:22.792Z,98234.02
2018-08-25T14:07:51.100Z,98228.50
2018-08-25T14:10:19.424Z,98239.31
2018-08-25T14:12:47.702Z,98237.20
2018-08-25T14:15:15.962Z,98234.36
2018-08-25T14:17:44.233Z,98235.70
2018-08-25T14:20:12.514Z,98233.97
2018-08-25T14:22:40.804Z,98228.61
2018-08-25T14:25:09.074Z,98234.62
2018-08-25T14:27:37.338Z,98230.41
2018-08-25T14:30:06.994Z,98225.75
2018-08-25T14:32:35.554Z,98218.76
2018-08-25T14:37:59.190Z,98223.50
2018-08-25T14:40:27.486Z,98230.98
2018-08-25T14:42:55.807Z,98227.25
2018-08-25T14:45:24.082Z,98226.06
2018-08-25T14:47:52.390Z,98237.11
2018-08-25T14:50:20.684Z,98234.77
2018-08-25T14:52:49.044Z,98229.38
2018-08-25T14:55:17.431Z,98233.98
2018-08-25T14:57:45.795Z,98230.77
2018-08-25T15:00:14.220Z,98236.17
2018-08-25T15:02:42.579Z,98235.50
2018-08-25T15:05:10.895Z,98236.12
2018-08-25T15:07:39.335Z,98240.57
2018-08-25T15:10:07.882Z,98229.47
2018-08-25T15:12:36.228Z,98237.11
2018-08-25T15:15:04.565Z,98235.66
2018-08-25T15:17:32.935Z,98232.65
2018-08-25T15:20:01.372Z,98249.80
2018-08-25T15:22:29.746Z,98237.36
2018-08-25T15:24:58.078Z,98245.66
2018-08-25T15:27:26.448Z,98237.50
2018-08-25T15:29:54.852Z,98231.08
2018-08-25T15:32:23.156Z,98231.80
2018-08-25T15:34:51.498Z,98229.55
2018-08-25T15:37:19.766Z,98228.32
2018-08-25T15:39:48.127Z,98228.52
2018-08-25T15:42:16.442Z,98238.09
2018-08-25T15:44:44.847Z,98238.38
2018-08-25T15:47:13.199Z,98240.13
2018-08-25T15:49:41.520Z,98253.77
2018-08-25T15:52:09.847Z,98243.66
2018-08-25T15:54:38.167Z,98239.09
2018-08-25T15:57:06.753Z,98237.98
2018-08-25T15:59:35.307Z,98248.42
2018-08-25T16:02:03.664Z,98248.57
2018-08-25T16:04:31.960Z,98256.39
2018-08-25T16:07:00.277Z,98258.38
2018-08-25T16:09:28.575Z,98270.71
2018-08-25T16:11:56.984Z,98260.05
2018-08-25T16:14:25.259Z,98260.03
2018-08-25T16:16:53.592Z,98258.61
2018-08-25T16:19:22.143Z,98266.06
2018-08-25T16:21:50.421Z,98266.70
2018-08-25T16:24:18.743Z,98281.14
2018-08-25T16:26:47.064Z,98304.34
2018-08-25T16:29:15.338Z,98292.98
2018-08-25T16:31:43.912Z,98295.88
2018-08-25T16:34:12.460Z,98303.25
2018-08-25T16:36:40.760Z,98292.67
2018-08-25T16:39:09.160Z,98300.77
2018-08-25T16:41:37.708Z,98290.20
2018-08-25T16:44:06.009Z,98291.88
2018-08-25T16:46:34.348Z,98298.07
2018-08-25T16:49:02.667Z,98295.38
2018-08-25T16:51:31.349Z,98289.12
2018-08-25T16:53:59.706Z,98300.30
2018-08-25T16:56:28.206Z,98307.38
2018-08-25T16:58:56.643Z,98309.80
2018-08-25T17:01:24.954Z,98314.46
2018-08-25T17:03:53.299Z,98312.91
2018-08-25T17:06:21.583Z,98317.89
2018-08-25T17:08:50.000Z,98314.41
2018-08-25T17:11:18.263Z,98319.80
2018-08-25T17:13:46.583Z,98331.11
2018-08-25T17:16:15.013Z,98326.58
2018-08-25T17:18:43.680Z,98325.93
2018-08-25T17:21:12.144Z,98327.55
2018-08-25T17:23:40.499Z,98337.48
2018-08-25T17:26:08.837Z,98348.30
2018-08-25T17:28:37.149Z,98348.30
2018-08-25T17:31:05.588Z,98363.37
2018-08-25T17:33:33.915Z,98355.91
2018-08-25T17:36:02.203Z,98358.91
2018-08-25T17:38:30.570Z,98354.87
2018-08-25T17:40:58.924Z,98372.39
2018-08-25T17:43:27.202Z,98365.23
2018-08-25T17:45:55.521Z,98367.12
2018-08-25T17:48:23.802Z,98370.11
2018-08-25T17:50:52.154Z,98371.45
2018-08-25T17:53:20.519Z,98374.47
2018-08-25T17:55:48.845Z,98378.53
2018-08-25T17:58:17.175Z,98380.09
2018-08-25T18:00:45.558Z,98386.84
2018-08-25T18:03:14.351Z,98395.34
2018-08-25T18:05:42.843Z,98391.52
2018-08-25T18:08:11.217Z,98390.52
2018-08-25T18:10:39.595Z,98397.23
2018-08-25T18:13:07.926Z,98400.96
2018-08-25T18:15:36.232Z,98404.52
2018-08-25T18:18:04.711Z,98400.34
2018-08-25T18:20:33.019Z,98408.73
2018-08-25T18:23:01.323Z,98411.47
2018-08-25T18:25:29.672Z,98419.85
2018-08-25T18:27:58.039Z,98414.48
2018-08-25T18:30:26.328Z,98420.18
2018-08-25T18:32:54.630Z,98424.71
2018-08-25T18:35:22.983Z,98434.28
2018-08-25T18:37:51.270Z,98432.78
2018-08-25T18:40:19.686Z,98438.67
2018-08-25T18:42:47.976Z,98443.38
2018-08-25T18:45:16.327Z,98437.98
2018-08-25T18:47:44.719Z,98439.34
2018-08-25T18:50:13.065Z,98441.20
2018-08-25T18:52:41.827Z,98437.82
2018-08-25T18:55:10.314Z,98442.36
2018-08-25T18:57:38.703Z,98446.19
2018-08-25T19:00:07.165Z,98451.58
2018-08-25T19:02:35.666Z,98448.84
2018-08-25T19:05:04.054Z,98455.06
2018-08-25T19:07:32.348Z,98461.26
2018-08-25T19:10:00.794Z,98467.77
2018-08-25T19:12:29.375Z,98470.14
2018-08-25T19:14:57.661Z,98473.12
2018-08-25T19:17:26.082Z,98481.50
2018-08-25T19:19:54.565Z,98484.98
2018-08-25T19:22:22.902Z,98488.82
2018-08-25T19:24:51.188Z,98489.16
2018-08-25T19:27:19.604Z,98497.88
2018-08-25T19:29:47.966Z,98505.84
2018-08-25T19:32:16.266Z,98503.50
2018-08-25T19:34:44.628Z,98511.72
2018-08-25T19:37:13.052Z,98502.95
2018-08-25T19:39:41.408Z,98508.02
2018-08-25T19:42:09.796Z,98514.56
2018-08-25T19:44:38.081Z,98509.65
2018-08-25T19:47:06.494Z,98513.33
2018-08-25T19:49:34.847Z,98518.69
2018-08-25T19:52:03.170Z,98515.41
2018-08-25T19:54:31.467Z,98515.34
2018-08-25T19:56:59.790Z,98515.50
2018-08-25T19:59:28.096Z,98529.87
2018-08-25T20:01:56.407Z,98523.53
2018-08-25T20:04:24.797Z,98521.09
2018-08-25T20:06:53.140Z,98531.34
2018-08-25T20:09:21.462Z,98527.76
2018-08-25T20:11:50.956Z,98530.06
2018-08-25T20:14:19.328Z,98527.26
2018-08-25T20:16:47.635Z,98530.79
2018-08-25T20:19:15.953Z,98531.11
2018-08-25T20:21:44.352Z,98526.44
2018-08-25T20:24:12.648Z,98531.81
2018-08-25T20:26:40.969Z,98534.97
2018-08-25T20:29:09.258Z,98540.77
2018-08-25T20:31:37.587Z,98540.72
2018-08-25T20:34:05.919Z,98548.52
2018-08-25T20:36:34.415Z,98555.13
2018-08-25T20:39:02.896Z,98554.48
2018-08-25T20:41:31.404Z,98559.18
2018-08-25T20:43:59.800Z,98560.72
2018-08-25T20:46:28.151Z,98564.67
2018-08-25T20:48:56.479Z,98566.92
2018-08-25T20:51:24.882Z,98569.25
2018-08-25T20:53:56.883Z,98568.73
2018-08-25T20:56:25.160Z,98570.67
2018-08-25T20:58:53.513Z,98570.92
2018-08-25T21:01:21.875Z,98573.94
2018-08-25T21:03:50.192Z,98575.94
2018-08-25T21:06:18.470Z,98579.91
2018-08-25T21:08:46.938Z,98578.91
2018-08-25T21:11:15.316Z,98576.58
2018-08-25T21:13:43.658Z,98573.22
2018-08-25T21:16:11.995Z,98570.78
2018-08-25T21:18:40.584Z,98577.22
2018-08-25T21:21:08.939Z,98570.45
2018-08-25T21:23:37.579Z,98579.30
2018-08-25T21:26:06.418Z,98582.80
2018-08-25T21:28:34.909Z,98578.57
2018-08-25T21:31:03.334Z,98573.28
2018-08-25T21:33:31.614Z,98574.22
2018-08-25T21:36:00.043Z,98569.77
2018-08-25T21:38:29.154Z,98573.15
2018-08-25T21:40:57.535Z,98577.57
2018-08-25T21:43:25.943Z,98577.73
2018-08-25T21:45:54.419Z,98589.36
2018-08-25T21:48:22.742Z,98594.67
2018-08-25T21:50:51.075Z,98592.47
2018-08-25T21:53:19.437Z,98594.45
2018-08-25T21:55:47.793Z,98593.80
2018-08-25T21:58:16.273Z,98600.30
2018-08-25T22:00:49.907Z,98602.05
2018-08-25T22:03:18.298Z,98606.00
2018-08-25T22:05:46.719Z,98615.32
2018-08-25T22:08:15.083Z,98608.06
2018-08-25T22:10:43.368Z,98617.95
2018-08-25T22:13:11.768Z,98608.94
2018-08-25T22:15:40.209Z,98623.30
2018-08-25T22:18:08.604Z,98617.57
2018-08-25T22:20:36.946Z,98625.41
2018-08-25T22:23:05.292Z,98609.40
2018-08-25T22:25:33.833Z,98609.81
2018-08-25T22:28:02.187Z,98609.16
2018-08-25T22:30:30.511Z,98615.36
2018-08-25T22:32:59.244Z,98619.76
2018-08-25T22:35:28.085Z,98617.16
2018-08-25T22:37:56.433Z,98631.89
2018-08-25T22:40:24.831Z,98631.66
2018-08-25T22:42:53.242Z,98634.23
2018-08-25T22:45:22.006Z,98638.58
2018-08-25T22:47:50.393Z,98638.42
2018-08-25T22:50:18.827Z,98633.23
2018-08-25T22:52:52.445Z,98638.47
2018-08-25T22:55:22.275Z,98643.70
2018-08-25T22:57:50.933Z,98644.47
2018-08-25T23:00:19.849Z,98649.54
2018-08-25T23:02:48.312Z,98649.08
2018-08-25T23:05:16.722Z,98642.36
2018-08-25T23:07:45.033Z,98645.27
2018-08-25T23:10:13.409Z,98642.44
2018-08-25T23:12:41.711Z,98637.28
2018-08-25T23:15:10.019Z,98641.36
2018-08-25T23:17:38.406Z,98645.51
2018-08-25T23:20:06.777Z,98652.68
2018-08-25T23:22:35.210Z,98643.55
2018-08-25T23:25:03.584Z,98646.16
2018-08-25T23:27:31.887Z,98650.03
2018-08-25T23:30:00.319Z,98648.27
2018-08-25T23:32:28.634Z,98644.53
2018-08-25T23:34:56.984Z,98650.52
2018-08-25T23:37:25.579Z,98651.09
2018-08-25T23:39:53.912Z,98649.38
2018-08-25T23:42:22.295Z,98644.67
2018-08-25T23:44:50.588Z,98649.81
2018-08-25T23:47:18.906Z,98647.54
2018-08-25T23:49:47.233Z,98657.77
2018-08-25T23:52:15.584Z,98660.55
2018-08-25T23:54:43.974Z,98666.64
2018-08-25T23:57:12.234Z,98657.02
2018-08-25T23:59:40.555Z,98664.76
